sensor_id;sensor_type;location;lat;lon;timestamp;P1;durP1;ratioP1;P2;durP2;ratioP2
22191;SDS011;11261;52.456;10.850;2022-12-18T00:00:04;18.23;;;9.73;;
22191;SDS011;11261;52.456;10.850;2022-12-18T00:02:34;22.40;;;8.97;;
22191;SDS011;11261;52.456;10.850;2022-12-18T00:05:02;22.10;;;10.70;;
22191;SDS011;11261;52.456;10.850;2022-12-18T00:07:31;26.37;;;11.40;;
22191;SDS011;11261;52.456;10.850;2022-12-18T00:09:59;20.57;;;10.27;;
22191;SDS011;11261;52.456;10.850;2022-12-18T00:12:27;16.30;;;8.97;;
22191;SDS011;11261;52.456;10.850;2022-12-18T00:14:55;14.67;;;7.00;;
22191;SDS011;11261;52.456;10.850;2022-12-18T00:17:25;16.87;;;8.33;;
22191;SDS011;11261;52.456;10.850;2022-12-18T00:19:53;20.87;;;9.80;;
22191;SDS011;11261;52.456;10.850;2022-12-18T00:22:21;21.37;;;10.33;;
22191;SDS011;11261;52.456;10.850;2022-12-18T00:24:49;18.33;;;8.10;;
22191;SDS011;11261;52.456;10.850;2022-12-18T00:27:17;23.17;;;9.10;;
22191;SDS011;11261;52.456;10.850;2022-12-18T00:29:46;22.97;;;10.77;;
22191;SDS011;11261;52.456;10.850;2022-12-18T00:32:15;28.23;;;13.70;;
22191;SDS011;11261;52.456;10.850;2022-12-18T00:34:45;25.00;;;10.43;;
22191;SDS011;11261;52.456;10.850;2022-12-18T00:37:13;22.20;;;10.73;;
22191;SDS011;11261;52.456;10.850;2022-12-18T00:39:47;36.07;;;11.83;;
22191;SDS011;11261;52.456;10.850;2022-12-18T00:42:16;24.00;;;11.63;;
22191;SDS011;11261;52.456;10.850;2022-12-18T00:45:02;22.27;;;9.33;;
22191;SDS011;11261;52.456;10.850;2022-12-18T00:47:38;21.43;;;10.13;;
22191;SDS011;11261;52.456;10.850;2022-12-18T00:50:08;24.37;;;10.53;;
22191;SDS011;11261;52.456;10.850;2022-12-18T00:52:36;23.63;;;10.27;;
22191;SDS011;11261;52.456;10.850;2022-12-18T00:55:05;15.20;;;7.97;;
22191;SDS011;11261;52.456;10.850;2022-12-18T00:57:34;19.10;;;10.43;;
22191;SDS011;11261;52.456;10.850;2022-12-18T01:00:03;27.83;;;12.03;;
22191;SDS011;11261;52.456;10.850;2022-12-18T01:02:33;25.07;;;10.43;;
22191;SDS011;11261;52.456;10.850;2022-12-18T01:05:01;28.83;;;11.40;;
22191;SDS011;11261;52.456;10.850;2022-12-18T01:07:31;21.63;;;10.10;;
22191;SDS011;11261;52.456;10.850;2022-12-18T01:10:00;21.57;;;10.23;;
22191;SDS011;11261;52.456;10.850;2022-12-18T01:12:28;24.10;;;9.80;;
22191;SDS011;11261;52.456;10.850;2022-12-18T01:14:56;24.87;;;10.37;;
22191;SDS011;11261;52.456;10.850;2022-12-18T01:17:24;22.70;;;9.40;;
22191;SDS011;11261;52.456;10.850;2022-12-18T01:19:52;12.30;;;6.17;;
22191;SDS011;11261;52.456;10.850;2022-12-18T01:22:21;23.37;;;9.13;;
22191;SDS011;11261;52.456;10.850;2022-12-18T01:24:50;21.40;;;9.90;;
22191;SDS011;11261;52.456;10.850;2022-12-18T01:27:18;23.73;;;10.90;;
22191;SDS011;11261;52.456;10.850;2022-12-18T01:29:46;21.43;;;9.20;;
22191;SDS011;11261;52.456;10.850;2022-12-18T01:32:14;25.47;;;11.93;;
22191;SDS011;11261;52.456;10.850;2022-12-18T01:34:43;23.07;;;9.53;;
22191;SDS011;11261;52.456;10.850;2022-12-18T01:37:11;17.87;;;8.63;;
22191;SDS011;11261;52.456;10.850;2022-12-18T01:39:39;16.07;;;7.33;;
22191;SDS011;11261;52.456;10.850;2022-12-18T01:42:10;15.80;;;7.20;;
22191;SDS011;11261;52.456;10.850;2022-12-18T01:44:56;20.60;;;7.10;;
22191;SDS011;11261;52.456;10.850;2022-12-18T01:47:27;19.80;;;8.03;;
22191;SDS011;11261;52.456;10.850;2022-12-18T01:49:59;19.80;;;8.77;;
22191;SDS011;11261;52.456;10.850;2022-12-18T01:52:30;17.10;;;7.80;;
22191;SDS011;11261;52.456;10.850;2022-12-18T01:55:00;18.93;;;9.73;;
22191;SDS011;11261;52.456;10.850;2022-12-18T01:57:33;22.10;;;9.93;;
22191;SDS011;11261;52.456;10.850;2022-12-18T02:00:03;26.40;;;10.73;;
22191;SDS011;11261;52.456;10.850;2022-12-18T02:02:33;25.43;;;9.87;;
22191;SDS011;11261;52.456;10.850;2022-12-18T02:05:03;24.20;;;9.77;;
22191;SDS011;11261;52.456;10.850;2022-12-18T02:07:35;27.53;;;11.17;;
22191;SDS011;11261;52.456;10.850;2022-12-18T02:10:11;27.17;;;11.80;;
22191;SDS011;11261;52.456;10.850;2022-12-18T02:12:48;25.23;;;11.93;;
22191;SDS011;11261;52.456;10.850;2022-12-18T02:15:24;24.13;;;9.80;;
22191;SDS011;11261;52.456;10.850;2022-12-18T02:17:57;18.53;;;8.13;;
22191;SDS011;11261;52.456;10.850;2022-12-18T02:20:31;22.07;;;10.10;;
22191;SDS011;11261;52.456;10.850;2022-12-18T02:23:04;17.10;;;8.17;;
22191;SDS011;11261;52.456;10.850;2022-12-18T02:25:43;14.40;;;8.17;;
22191;SDS011;11261;52.456;10.850;2022-12-18T02:28:35;18.77;;;6.87;;
22191;SDS011;11261;52.456;10.850;2022-12-18T02:31:10;16.10;;;8.33;;
22191;SDS011;11261;52.456;10.850;2022-12-18T02:33:41;16.47;;;7.67;;
22191;SDS011;11261;52.456;10.850;2022-12-18T02:36:12;22.13;;;9.43;;
22191;SDS011;11261;52.456;10.850;2022-12-18T02:38:43;20.77;;;9.97;;
22191;SDS011;11261;52.456;10.850;2022-12-18T02:41:14;23.50;;;9.97;;
22191;SDS011;11261;52.456;10.850;2022-12-18T02:43:46;22.37;;;10.17;;
22191;SDS011;11261;52.456;10.850;2022-12-18T02:46:24;25.73;;;11.63;;
22191;SDS011;11261;52.456;10.850;2022-12-18T02:49:01;19.93;;;9.87;;
22191;SDS011;11261;52.456;10.850;2022-12-18T02:51:39;17.53;;;9.07;;
22191;SDS011;11261;52.456;10.850;2022-12-18T02:54:18;21.83;;;10.63;;
22191;SDS011;11261;52.456;10.850;2022-12-18T02:56:57;18.80;;;9.10;;
22191;SDS011;11261;52.456;10.850;2022-12-18T02:59:30;18.23;;;9.40;;
22191;SDS011;11261;52.456;10.850;2022-12-18T03:02:07;21.20;;;10.13;;
22191;SDS011;11261;52.456;10.850;2022-12-18T03:04:44;20.40;;;11.23;;
22191;SDS011;11261;52.456;10.850;2022-12-18T03:07:18;17.40;;;8.27;;
22191;SDS011;11261;52.456;10.850;2022-12-18T03:09:50;19.93;;;9.20;;
22191;SDS011;11261;52.456;10.850;2022-12-18T03:12:24;15.23;;;6.90;;
22191;SDS011;11261;52.456;10.850;2022-12-18T03:14:58;17.90;;;9.30;;
22191;SDS011;11261;52.456;10.850;2022-12-18T03:17:32;16.03;;;7.93;;
22191;SDS011;11261;52.456;10.850;2022-12-18T03:20:03;14.97;;;7.30;;
22191;SDS011;11261;52.456;10.850;2022-12-18T03:22:37;16.77;;;8.03;;
22191;SDS011;11261;52.456;10.850;2022-12-18T03:25:08;19.47;;;8.23;;
22191;SDS011;11261;52.456;10.850;2022-12-18T03:27:40;17.93;;;9.50;;
22191;SDS011;11261;52.456;10.850;2022-12-18T03:30:14;18.67;;;8.33;;
22191;SDS011;11261;52.456;10.850;2022-12-18T03:32:44;20.73;;;8.93;;
22191;SDS011;11261;52.456;10.850;2022-12-18T03:35:18;17.33;;;7.77;;
22191;SDS011;11261;52.456;10.850;2022-12-18T03:37:50;15.20;;;7.03;;
22191;SDS011;11261;52.456;10.850;2022-12-18T03:40:19;25.30;;;10.37;;
22191;SDS011;11261;52.456;10.850;2022-12-18T03:42:51;17.10;;;9.33;;
22191;SDS011;11261;52.456;10.850;2022-12-18T03:45:25;31.53;;;11.63;;
22191;SDS011;11261;52.456;10.850;2022-12-18T03:47:59;20.47;;;9.27;;
22191;SDS011;11261;52.456;10.850;2022-12-18T03:50:34;15.67;;;7.97;;
22191;SDS011;11261;52.456;10.850;2022-12-18T03:53:09;15.60;;;8.50;;
22191;SDS011;11261;52.456;10.850;2022-12-18T03:55:45;11.67;;;6.33;;
22191;SDS011;11261;52.456;10.850;2022-12-18T03:58:17;16.37;;;7.03;;
22191;SDS011;11261;52.456;10.850;2022-12-18T04:00:47;16.43;;;8.70;;
22191;SDS011;11261;52.456;10.850;2022-12-18T04:03:18;19.07;;;9.40;;
22191;SDS011;11261;52.456;10.850;2022-12-18T04:05:52;22.23;;;8.80;;
22191;SDS011;11261;52.456;10.850;2022-12-18T04:08:22;15.83;;;6.73;;
22191;SDS011;11261;52.456;10.850;2022-12-18T04:10:51;12.87;;;5.93;;
22191;SDS011;11261;52.456;10.850;2022-12-18T04:13:24;7.77;;;5.10;;
22191;SDS011;11261;52.456;10.850;2022-12-18T04:15:56;9.60;;;5.60;;
22191;SDS011;11261;52.456;10.850;2022-12-18T04:18:24;15.30;;;8.30;;
22191;SDS011;11261;52.456;10.850;2022-12-18T04:20:53;13.00;;;6.50;;
22191;SDS011;11261;52.456;10.850;2022-12-18T04:23:21;13.73;;;7.67;;
22191;SDS011;11261;52.456;10.850;2022-12-18T04:25:49;21.37;;;9.93;;
22191;SDS011;11261;52.456;10.850;2022-12-18T04:28:17;11.70;;;7.60;;
22191;SDS011;11261;52.456;10.850;2022-12-18T04:30:48;26.40;;;11.77;;
22191;SDS011;11261;52.456;10.850;2022-12-18T04:33:16;18.57;;;8.97;;
22191;SDS011;11261;52.456;10.850;2022-12-18T04:35:45;19.50;;;8.43;;
22191;SDS011;11261;52.456;10.850;2022-12-18T04:38:13;13.90;;;7.10;;
22191;SDS011;11261;52.456;10.850;2022-12-18T04:40:42;11.13;;;4.40;;
22191;SDS011;11261;52.456;10.850;2022-12-18T04:43:11;11.30;;;5.63;;
22191;SDS011;11261;52.456;10.850;2022-12-18T04:45:39;13.27;;;7.17;;
22191;SDS011;11261;52.456;10.850;2022-12-18T04:48:09;14.70;;;7.50;;
22191;SDS011;11261;52.456;10.850;2022-12-18T04:50:37;12.63;;;6.10;;
22191;SDS011;11261;52.456;10.850;2022-12-18T04:53:06;18.67;;;7.70;;
22191;SDS011;11261;52.456;10.850;2022-12-18T04:55:35;21.93;;;11.13;;
22191;SDS011;11261;52.456;10.850;2022-12-18T04:58:03;13.77;;;7.70;;
22191;SDS011;11261;52.456;10.850;2022-12-18T05:00:32;23.97;;;10.03;;
22191;SDS011;11261;52.456;10.850;2022-12-18T05:03:00;25.77;;;10.37;;
22191;SDS011;11261;52.456;10.850;2022-12-18T05:05:30;19.17;;;10.00;;
22191;SDS011;11261;52.456;10.850;2022-12-18T05:07:59;19.50;;;9.40;;
22191;SDS011;11261;52.456;10.850;2022-12-18T05:10:27;23.07;;;9.33;;
22191;SDS011;11261;52.456;10.850;2022-12-18T05:13:03;25.00;;;11.37;;
22191;SDS011;11261;52.456;10.850;2022-12-18T05:15:31;18.50;;;9.33;;
22191;SDS011;11261;52.456;10.850;2022-12-18T05:18:00;19.77;;;9.87;;
22191;SDS011;11261;52.456;10.850;2022-12-18T05:20:31;19.30;;;8.33;;
22191;SDS011;11261;52.456;10.850;2022-12-18T05:22:59;19.53;;;10.00;;
22191;SDS011;11261;52.456;10.850;2022-12-18T05:25:28;19.80;;;10.27;;
22191;SDS011;11261;52.456;10.850;2022-12-18T05:27:56;21.33;;;11.63;;
22191;SDS011;11261;52.456;10.850;2022-12-18T05:30:25;18.87;;;9.10;;
22191;SDS011;11261;52.456;10.850;2022-12-18T05:32:53;23.40;;;11.57;;
22191;SDS011;11261;52.456;10.850;2022-12-18T05:35:22;27.07;;;11.97;;
22191;SDS011;11261;52.456;10.850;2022-12-18T05:37:51;23.13;;;10.70;;
22191;SDS011;11261;52.456;10.850;2022-12-18T05:40:20;16.50;;;7.77;;
22191;SDS011;11261;52.456;10.850;2022-12-18T05:42:48;28.03;;;12.60;;
22191;SDS011;11261;52.456;10.850;2022-12-18T05:45:16;30.47;;;12.93;;
22191;SDS011;11261;52.456;10.850;2022-12-18T05:47:44;16.37;;;9.00;;
22191;SDS011;11261;52.456;10.850;2022-12-18T05:50:12;31.77;;;15.43;;
22191;SDS011;11261;52.456;10.850;2022-12-18T05:52:40;29.13;;;14.77;;
22191;SDS011;11261;52.456;10.850;2022-12-18T05:55:10;28.40;;;12.87;;
22191;SDS011;11261;52.456;10.850;2022-12-18T05:57:38;28.03;;;12.80;;
22191;SDS011;11261;52.456;10.850;2022-12-18T06:00:07;25.37;;;12.30;;
22191;SDS011;11261;52.456;10.850;2022-12-18T06:02:36;30.40;;;13.97;;
22191;SDS011;11261;52.456;10.850;2022-12-18T06:05:05;26.67;;;13.13;;
22191;SDS011;11261;52.456;10.850;2022-12-18T06:07:33;28.33;;;13.70;;
22191;SDS011;11261;52.456;10.850;2022-12-18T06:10:02;27.70;;;12.63;;
22191;SDS011;11261;52.456;10.850;2022-12-18T06:12:31;26.10;;;10.83;;
22191;SDS011;11261;52.456;10.850;2022-12-18T06:15:00;23.27;;;12.00;;
22191;SDS011;11261;52.456;10.850;2022-12-18T06:17:28;28.33;;;12.70;;
22191;SDS011;11261;52.456;10.850;2022-12-18T06:19:57;26.67;;;11.80;;
22191;SDS011;11261;52.456;10.850;2022-12-18T06:22:25;27.87;;;12.53;;
22191;SDS011;11261;52.456;10.850;2022-12-18T06:24:53;30.57;;;11.63;;
22191;SDS011;11261;52.456;10.850;2022-12-18T06:27:21;20.53;;;9.17;;
22191;SDS011;11261;52.456;10.850;2022-12-18T06:29:51;31.43;;;11.90;;
22191;SDS011;11261;52.456;10.850;2022-12-18T06:32:19;21.17;;;10.37;;
22191;SDS011;11261;52.456;10.850;2022-12-18T06:34:47;23.67;;;9.33;;
22191;SDS011;11261;52.456;10.850;2022-12-18T06:37:15;19.47;;;9.83;;
22191;SDS011;11261;52.456;10.850;2022-12-18T06:39:44;16.30;;;8.73;;
22191;SDS011;11261;52.456;10.850;2022-12-18T06:42:12;21.90;;;8.93;;
22191;SDS011;11261;52.456;10.850;2022-12-18T06:44:40;30.17;;;12.00;;
22191;SDS011;11261;52.456;10.850;2022-12-18T06:47:09;25.03;;;11.37;;
22191;SDS011;11261;52.456;10.850;2022-12-18T06:49:37;31.43;;;14.47;;
22191;SDS011;11261;52.456;10.850;2022-12-18T06:52:06;28.17;;;13.87;;
22191;SDS011;11261;52.456;10.850;2022-12-18T06:54:34;19.53;;;9.03;;
22191;SDS011;11261;52.456;10.850;2022-12-18T06:57:02;25.77;;;10.20;;
22191;SDS011;11261;52.456;10.850;2022-12-18T06:59:30;21.27;;;9.73;;
22191;SDS011;11261;52.456;10.850;2022-12-18T07:01:59;25.00;;;11.60;;
22191;SDS011;11261;52.456;10.850;2022-12-18T07:04:29;24.13;;;9.93;;
22191;SDS011;11261;52.456;10.850;2022-12-18T07:06:58;26.57;;;11.23;;
22191;SDS011;11261;52.456;10.850;2022-12-18T07:09:26;30.90;;;11.43;;
22191;SDS011;11261;52.456;10.850;2022-12-18T07:11:54;28.30;;;12.10;;
22191;SDS011;11261;52.456;10.850;2022-12-18T07:14:23;27.93;;;10.23;;
22191;SDS011;11261;52.456;10.850;2022-12-18T07:16:51;20.50;;;9.43;;
22191;SDS011;11261;52.456;10.850;2022-12-18T07:19:19;18.03;;;9.07;;
22191;SDS011;11261;52.456;10.850;2022-12-18T07:21:50;16.80;;;7.87;;
22191;SDS011;11261;52.456;10.850;2022-12-18T07:24:18;22.87;;;9.97;;
22191;SDS011;11261;52.456;10.850;2022-12-18T07:26:47;15.63;;;8.10;;
22191;SDS011;11261;52.456;10.850;2022-12-18T07:29:15;21.13;;;8.93;;
22191;SDS011;11261;52.456;10.850;2022-12-18T07:31:43;20.37;;;10.43;;
22191;SDS011;11261;52.456;10.850;2022-12-18T07:34:12;28.60;;;11.13;;
22191;SDS011;11261;52.456;10.850;2022-12-18T07:36:41;20.67;;;9.37;;
22191;SDS011;11261;52.456;10.850;2022-12-18T07:39:11;17.00;;;8.17;;
22191;SDS011;11261;52.456;10.850;2022-12-18T07:41:40;22.43;;;10.53;;
22191;SDS011;11261;52.456;10.850;2022-12-18T07:44:13;26.60;;;10.27;;
22191;SDS011;11261;52.456;10.850;2022-12-18T07:46:41;30.00;;;13.13;;
22191;SDS011;11261;52.456;10.850;2022-12-18T07:49:09;17.73;;;7.53;;
22191;SDS011;11261;52.456;10.850;2022-12-18T07:51:37;28.80;;;12.13;;
22191;SDS011;11261;52.456;10.850;2022-12-18T07:54:05;30.33;;;12.10;;
22191;SDS011;11261;52.456;10.850;2022-12-18T07:56:36;30.90;;;11.73;;
22191;SDS011;11261;52.456;10.850;2022-12-18T07:59:04;31.57;;;12.77;;
22191;SDS011;11261;52.456;10.850;2022-12-18T08:01:32;37.90;;;15.43;;
22191;SDS011;11261;52.456;10.850;2022-12-18T08:04:01;30.90;;;13.50;;
22191;SDS011;11261;52.456;10.850;2022-12-18T08:06:29;38.60;;;15.10;;
22191;SDS011;11261;52.456;10.850;2022-12-18T08:08:57;26.30;;;10.93;;
22191;SDS011;11261;52.456;10.850;2022-12-18T08:11:27;34.07;;;12.37;;
22191;SDS011;11261;52.456;10.850;2022-12-18T08:13:57;35.17;;;12.60;;
22191;SDS011;11261;52.456;10.850;2022-12-18T08:16:26;33.17;;;12.37;;
22191;SDS011;11261;52.456;10.850;2022-12-18T08:18:54;29.50;;;10.73;;
22191;SDS011;11261;52.456;10.850;2022-12-18T08:21:23;29.67;;;10.80;;
22191;SDS011;11261;52.456;10.850;2022-12-18T08:23:53;26.37;;;11.37;;
22191;SDS011;11261;52.456;10.850;2022-12-18T08:26:22;28.33;;;12.30;;
22191;SDS011;11261;52.456;10.850;2022-12-18T08:28:52;28.90;;;12.63;;
22191;SDS011;11261;52.456;10.850;2022-12-18T08:31:24;34.03;;;14.63;;
22191;SDS011;11261;52.456;10.850;2022-12-18T08:33:53;30.73;;;11.27;;
22191;SDS011;11261;52.456;10.850;2022-12-18T08:36:22;33.03;;;12.77;;
22191;SDS011;11261;52.456;10.850;2022-12-18T08:38:52;19.10;;;9.60;;
22191;SDS011;11261;52.456;10.850;2022-12-18T08:41:20;33.13;;;14.50;;
22191;SDS011;11261;52.456;10.850;2022-12-18T08:43:49;32.67;;;12.90;;
22191;SDS011;11261;52.456;10.850;2022-12-18T08:46:36;29.10;;;13.60;;
22191;SDS011;11261;52.456;10.850;2022-12-18T08:49:06;30.60;;;12.83;;
22191;SDS011;11261;52.456;10.850;2022-12-18T08:51:35;31.20;;;12.10;;
22191;SDS011;11261;52.456;10.850;2022-12-18T08:54:03;22.80;;;11.63;;
22191;SDS011;11261;52.456;10.850;2022-12-18T08:56:33;29.60;;;12.83;;
22191;SDS011;11261;52.456;10.850;2022-12-18T08:59:01;18.10;;;9.10;;
22191;SDS011;11261;52.456;10.850;2022-12-18T09:01:30;24.60;;;10.43;;
22191;SDS011;11261;52.456;10.850;2022-12-18T09:04:00;21.63;;;10.63;;
22191;SDS011;11261;52.456;10.850;2022-12-18T09:06:29;22.07;;;10.93;;
22191;SDS011;11261;52.456;10.850;2022-12-18T09:08:58;23.30;;;10.50;;
22191;SDS011;11261;52.456;10.850;2022-12-18T09:11:27;17.80;;;9.27;;
22191;SDS011;11261;52.456;10.850;2022-12-18T09:13:56;23.33;;;11.60;;
22191;SDS011;11261;52.456;10.850;2022-12-18T09:16:25;22.97;;;10.00;;
22191;SDS011;11261;52.456;10.850;2022-12-18T09:18:58;19.00;;;8.53;;
22191;SDS011;11261;52.456;10.850;2022-12-18T09:21:28;24.00;;;10.07;;
22191;SDS011;11261;52.456;10.850;2022-12-18T09:24:02;25.93;;;9.80;;
22191;SDS011;11261;52.456;10.850;2022-12-18T09:26:34;23.50;;;11.13;;
22191;SDS011;11261;52.456;10.850;2022-12-18T09:29:03;23.47;;;13.20;;
22191;SDS011;11261;52.456;10.850;2022-12-18T09:31:33;21.73;;;10.83;;
22191;SDS011;11261;52.456;10.850;2022-12-18T09:34:02;18.13;;;8.87;;
22191;SDS011;11261;52.456;10.850;2022-12-18T09:36:35;19.77;;;8.13;;
22191;SDS011;11261;52.456;10.850;2022-12-18T09:39:03;26.20;;;12.67;;
22191;SDS011;11261;52.456;10.850;2022-12-18T09:44:25;26.70;;;11.40;;
22191;SDS011;11261;52.456;10.850;2022-12-18T09:46:59;25.13;;;11.83;;
22191;SDS011;11261;52.456;10.850;2022-12-18T09:49:39;27.67;;;12.40;;
22191;SDS011;11261;52.456;10.850;2022-12-18T09:52:13;32.67;;;14.63;;
22191;SDS011;11261;52.456;10.850;2022-12-18T09:54:46;25.60;;;10.87;;
22191;SDS011;11261;52.456;10.850;2022-12-18T09:57:19;28.00;;;12.23;;
22191;SDS011;11261;52.456;10.850;2022-12-18T09:59:50;29.67;;;12.90;;
22191;SDS011;11261;52.456;10.850;2022-12-18T10:02:22;32.83;;;15.53;;
22191;SDS011;11261;52.456;10.850;2022-12-18T10:04:55;29.23;;;13.40;;
22191;SDS011;11261;52.456;10.850;2022-12-18T10:07:43;28.00;;;13.60;;
22191;SDS011;11261;52.456;10.850;2022-12-18T10:10:21;26.73;;;12.20;;
22191;SDS011;11261;52.456;10.850;2022-12-18T10:12:56;33.90;;;13.67;;
22191;SDS011;11261;52.456;10.850;2022-12-18T10:15:31;30.57;;;11.13;;
22191;SDS011;11261;52.456;10.850;2022-12-18T10:18:06;30.97;;;13.90;;
22191;SDS011;11261;52.456;10.850;2022-12-18T10:20:47;25.80;;;12.67;;
22191;SDS011;11261;52.456;10.850;2022-12-18T10:23:21;29.20;;;12.83;;
22191;SDS011;11261;52.456;10.850;2022-12-18T10:25:57;28.67;;;13.00;;
22191;SDS011;11261;52.456;10.850;2022-12-18T10:28:29;22.10;;;11.07;;
22191;SDS011;11261;52.456;10.850;2022-12-18T10:30:58;31.47;;;13.83;;
22191;SDS011;11261;52.456;10.850;2022-12-18T10:33:28;28.10;;;13.50;;
22191;SDS011;11261;52.456;10.850;2022-12-18T10:35:58;25.67;;;10.97;;
22191;SDS011;11261;52.456;10.850;2022-12-18T10:38:28;27.10;;;11.97;;
22191;SDS011;11261;52.456;10.850;2022-12-18T10:40:58;26.80;;;11.60;;
22191;SDS011;11261;52.456;10.850;2022-12-18T10:43:29;29.97;;;12.67;;
22191;SDS011;11261;52.456;10.850;2022-12-18T10:45:59;33.87;;;14.57;;
22191;SDS011;11261;52.456;10.850;2022-12-18T10:48:30;31.20;;;12.40;;
22191;SDS011;11261;52.456;10.850;2022-12-18T10:50:59;28.33;;;13.03;;
22191;SDS011;11261;52.456;10.850;2022-12-18T10:53:40;31.87;;;12.23;;
22191;SDS011;11261;52.456;10.850;2022-12-18T10:56:09;27.50;;;13.57;;
22191;SDS011;11261;52.456;10.850;2022-12-18T10:58:38;27.27;;;13.50;;
22191;SDS011;11261;52.456;10.850;2022-12-18T11:01:09;36.50;;;16.07;;
22191;SDS011;11261;52.456;10.850;2022-12-18T11:03:39;34.03;;;15.33;;
22191;SDS011;11261;52.456;10.850;2022-12-18T11:06:10;35.70;;;17.10;;
22191;SDS011;11261;52.456;10.850;2022-12-18T11:08:42;32.10;;;14.90;;
22191;SDS011;11261;52.456;10.850;2022-12-18T11:11:15;34.87;;;16.07;;
22191;SDS011;11261;52.456;10.850;2022-12-18T11:13:51;30.00;;;13.37;;
22191;SDS011;11261;52.456;10.850;2022-12-18T11:16:26;38.57;;;15.90;;
22191;SDS011;11261;52.456;10.850;2022-12-18T11:19:08;32.50;;;15.83;;
22191;SDS011;11261;52.456;10.850;2022-12-18T11:21:42;34.17;;;14.57;;
22191;SDS011;11261;52.456;10.850;2022-12-18T11:24:17;34.77;;;16.13;;
22191;SDS011;11261;52.456;10.850;2022-12-18T11:26:50;41.03;;;18.60;;
22191;SDS011;11261;52.456;10.850;2022-12-18T11:29:27;37.60;;;17.40;;
22191;SDS011;11261;52.456;10.850;2022-12-18T11:32:12;30.00;;;13.20;;
22191;SDS011;11261;52.456;10.850;2022-12-18T11:34:59;21.13;;;10.33;;
22191;SDS011;11261;52.456;10.850;2022-12-18T11:37:34;31.77;;;15.33;;
22191;SDS011;11261;52.456;10.850;2022-12-18T11:40:09;31.50;;;14.70;;
22191;SDS011;11261;52.456;10.850;2022-12-18T11:42:42;31.40;;;12.37;;
22191;SDS011;11261;52.456;10.850;2022-12-18T11:48:03;30.27;;;13.57;;
22191;SDS011;11261;52.456;10.850;2022-12-18T11:50:40;33.57;;;16.87;;
22191;SDS011;11261;52.456;10.850;2022-12-18T11:53:12;28.83;;;13.80;;
22191;SDS011;11261;52.456;10.850;2022-12-18T11:55:44;29.87;;;14.07;;
22191;SDS011;11261;52.456;10.850;2022-12-18T11:58:29;32.90;;;14.53;;
22191;SDS011;11261;52.456;10.850;2022-12-18T12:01:15;28.20;;;14.20;;
22191;SDS011;11261;52.456;10.850;2022-12-18T12:03:57;33.63;;;14.40;;
22191;SDS011;11261;52.456;10.850;2022-12-18T12:06:45;28.43;;;13.07;;
22191;SDS011;11261;52.456;10.850;2022-12-18T12:09:28;35.33;;;15.10;;
22191;SDS011;11261;52.456;10.850;2022-12-18T12:12:06;26.17;;;13.80;;
22191;SDS011;11261;52.456;10.850;2022-12-18T12:14:50;30.70;;;12.83;;
22191;SDS011;11261;52.456;10.850;2022-12-18T12:17:32;29.07;;;13.53;;
22191;SDS011;11261;52.456;10.850;2022-12-18T12:20:07;29.03;;;12.73;;
22191;SDS011;11261;52.456;10.850;2022-12-18T12:22:44;28.53;;;14.47;;
22191;SDS011;11261;52.456;10.850;2022-12-18T12:25:21;29.87;;;12.27;;
22191;SDS011;11261;52.456;10.850;2022-12-18T12:28:02;27.73;;;11.80;;
22191;SDS011;11261;52.456;10.850;2022-12-18T12:30:41;27.77;;;12.17;;
22191;SDS011;11261;52.456;10.850;2022-12-18T12:33:21;30.80;;;14.30;;
22191;SDS011;11261;52.456;10.850;2022-12-18T12:36:06;30.60;;;13.90;;
22191;SDS011;11261;52.456;10.850;2022-12-18T12:38:42;27.17;;;15.43;;
22191;SDS011;11261;52.456;10.850;2022-12-18T12:41:18;31.40;;;15.33;;
22191;SDS011;11261;52.456;10.850;2022-12-18T12:44:07;33.40;;;16.40;;
22191;SDS011;11261;52.456;10.850;2022-12-18T12:46:42;25.27;;;11.00;;
22191;SDS011;11261;52.456;10.850;2022-12-18T12:49:12;29.10;;;13.87;;
22191;SDS011;11261;52.456;10.850;2022-12-18T12:51:43;32.60;;;15.80;;
22191;SDS011;11261;52.456;10.850;2022-12-18T12:54:15;31.07;;;16.30;;
22191;SDS011;11261;52.456;10.850;2022-12-18T12:56:48;27.37;;;14.50;;
22191;SDS011;11261;52.456;10.850;2022-12-18T12:59:25;28.67;;;15.97;;
22191;SDS011;11261;52.456;10.850;2022-12-18T13:01:59;23.27;;;10.80;;
22191;SDS011;11261;52.456;10.850;2022-12-18T13:04:36;23.43;;;11.80;;
22191;SDS011;11261;52.456;10.850;2022-12-18T13:07:11;23.07;;;12.97;;
22191;SDS011;11261;52.456;10.850;2022-12-18T13:13:04;22.73;;;11.30;;
22191;SDS011;11261;52.456;10.850;2022-12-18T13:15:37;20.20;;;9.77;;
22191;SDS011;11261;52.456;10.850;2022-12-18T13:18:12;22.53;;;13.10;;
22191;SDS011;11261;52.456;10.850;2022-12-18T13:20:49;23.13;;;11.97;;
22191;SDS011;11261;52.456;10.850;2022-12-18T13:23:31;19.67;;;9.00;;
22191;SDS011;11261;52.456;10.850;2022-12-18T13:29:00;18.17;;;8.97;;
22191;SDS011;11261;52.456;10.850;2022-12-18T13:34:36;18.50;;;8.80;;
22191;SDS011;11261;52.456;10.850;2022-12-18T13:43:24;14.53;;;7.23;;
22191;SDS011;11261;52.456;10.850;2022-12-18T13:46:23;21.03;;;11.20;;
22191;SDS011;11261;52.456;10.850;2022-12-18T13:48:57;21.20;;;11.47;;
22191;SDS011;11261;52.456;10.850;2022-12-18T13:51:30;20.13;;;10.97;;
22191;SDS011;11261;52.456;10.850;2022-12-18T13:54:01;21.73;;;10.80;;
22191;SDS011;11261;52.456;10.850;2022-12-18T13:56:32;19.67;;;10.10;;
22191;SDS011;11261;52.456;10.850;2022-12-18T13:59:05;21.63;;;8.70;;
22191;SDS011;11261;52.456;10.850;2022-12-18T14:01:44;19.57;;;9.87;;
22191;SDS011;11261;52.456;10.850;2022-12-18T14:04:21;19.63;;;9.33;;
22191;SDS011;11261;52.456;10.850;2022-12-18T14:07:01;18.13;;;10.83;;
22191;SDS011;11261;52.456;10.850;2022-12-18T14:09:34;14.37;;;7.57;;
22191;SDS011;11261;52.456;10.850;2022-12-18T14:12:06;17.57;;;8.27;;
22191;SDS011;11261;52.456;10.850;2022-12-18T14:14:58;17.77;;;8.57;;
22191;SDS011;11261;52.456;10.850;2022-12-18T14:17:28;18.53;;;8.90;;
22191;SDS011;11261;52.456;10.850;2022-12-18T14:19:58;17.50;;;10.50;;
22191;SDS011;11261;52.456;10.850;2022-12-18T14:22:29;18.27;;;10.07;;
22191;SDS011;11261;52.456;10.850;2022-12-18T14:25:06;11.90;;;6.67;;
22191;SDS011;11261;52.456;10.850;2022-12-18T14:27:42;19.37;;;10.10;;
22191;SDS011;11261;52.456;10.850;2022-12-18T14:30:23;16.87;;;7.90;;
22191;SDS011;11261;52.456;10.850;2022-12-18T14:32:59;16.20;;;7.20;;
22191;SDS011;11261;52.456;10.850;2022-12-18T14:35:31;18.63;;;8.47;;
22191;SDS011;11261;52.456;10.850;2022-12-18T14:38:21;14.93;;;8.33;;
22191;SDS011;11261;52.456;10.850;2022-12-18T14:40:53;19.90;;;9.57;;
22191;SDS011;11261;52.456;10.850;2022-12-18T14:43:27;21.10;;;9.57;;
22191;SDS011;11261;52.456;10.850;2022-12-18T14:45:57;20.40;;;9.77;;
22191;SDS011;11261;52.456;10.850;2022-12-18T14:48:32;13.87;;;7.87;;
22191;SDS011;11261;52.456;10.850;2022-12-18T14:51:04;14.37;;;8.60;;
22191;SDS011;11261;52.456;10.850;2022-12-18T14:53:36;15.50;;;9.17;;
22191;SDS011;11261;52.456;10.850;2022-12-18T14:56:13;16.37;;;8.77;;
22191;SDS011;11261;52.456;10.850;2022-12-18T14:58:44;17.77;;;8.30;;
22191;SDS011;11261;52.456;10.850;2022-12-18T15:01:18;14.90;;;8.53;;